Time,TemperatureF,DewpointF,PressureIn,WindDirection,WindDirectionDegrees,WindSpeedMPH,WindSpeedGustMPH,Humidity,HourlyPrecipIn,Conditions,Clouds,dailyrainin,SoftwareType,DateUTC
2013-06-21 00:09:00,63.3,61.0,29.95,South,179,1.0,5.0,91,0.01,,,0.01,weatherlink.com 1.10,2013-06-21 05:09:00,
2013-06-21 00:24:00,64.7,61.0,30.04,SW,235,3.0,17.0,86,0.09,,,0.09,weatherlink.com 1.10,2013-06-21 05:24:00,
2013-06-21 00:39:00,63.5,60.0,29.88,East,85,4.0,5.0,88,0.13,,,0.13,weatherlink.com 1.10,2013-06-21 05:39:00,
2013-06-21 00:54:00,63.3,60.0,29.81,East,85,4.0,8.0,89,0.13,,,0.13,weatherlink.com 1.10,2013-06-21 05:54:00,
2013-06-21 01:09:00,64.0,60.0,29.82,East,95,5.0,8.0,85,0.12,,,0.13,weatherlink.com 1.10,2013-06-21 06:09:00,
2013-06-21 01:24:00,64.0,60.0,29.83,East,98,2.0,5.0,86,0.04,,,0.13,weatherlink.com 1.10,2013-06-21 06:24:00,
2013-06-21 01:39:00,63.7,60.0,29.86,ESE,104,1.0,3.0,87,0.00,,,0.13,weatherlink.com 1.10,2013-06-21 06:39:00,
2013-06-21 01:54:00,63.8,60.0,29.87,SSE,158,0.0,2.0,87,0.00,,,0.13,weatherlink.com 1.10,2013-06-21 06:54:00,
2013-06-21 02:09:00,64.1,60.0,29.91,NNW,340,1.0,2.0,86,0.00,,,0.13,weatherlink.com 1.10,2013-06-21 07:09:00,
2013-06-21 02:24:00,63.9,60.0,29.89,NE,49,0.0,2.0,87,0.00,,,0.13,weatherlink.com 1.10,2013-06-21 07:24:00,
2013-06-21 02:39:00,63.7,60.0,29.89,NW,312,0.0,1.0,87,0.00,,,0.13,weatherlink.com 1.10,2013-06-21 07:39:00,
2013-06-21 02:54:00,63.2,60.0,29.90,WSW,238,0.0,2.0,88,0.00,,,0.13,weatherlink.com 1.10,2013-06-21 07:54:00,
2013-06-21 03:09:00,62.8,60.0,29.90,WSW,245,0.0,1.0,89,0.00,,,0.13,weatherlink.com 1.10,2013-06-21 08:09:00,
2013-06-21 03:24:00,62.6,60.0,29.91,West,266,0.0,1.0,90,0.00,,,0.13,weatherlink.com 1.10,2013-06-21 08:24:00,
2013-06-21 03:39:00,62.5,60.0,29.91,West,266,0.0,0.0,90,0.00,,,0.13,weatherlink.com 1.10,2013-06-21 08:39:00,
2013-06-21 03:54:00,62.3,59.0,29.89,WSW,250,0.0,0.0,90,0.00,,,0.13,weatherlink.com 1.10,2013-06-21 08:54:00,
2013-06-21 04:09:00,62.4,60.0,29.89,WSW,246,1.0,1.0,90,0.00,,,0.13,weatherlink.com 1.10,2013-06-21 09:09:00,
2013-06-21 04:24:00,62.2,59.0,29.91,NW,307,0.0,3.0,90,0.00,,,0.13,weatherlink.com 1.10,2013-06-21 09:24:00,
2013-06-21 04:39:00,62.2,59.0,29.93,West,281,1.0,4.0,89,0.00,,,0.13,weatherlink.com 1.10,2013-06-21 09:39:00,
2013-06-21 04:54:00,62.1,59.0,29.94,WNW,300,4.0,6.0,89,0.00,,,0.13,weatherlink.com 1.10,2013-06-21 09:54:00,
2013-06-21 05:09:00,61.9,59.0,29.95,NNW,348,0.0,5.0,90,0.00,,,0.13,weatherlink.com 1.10,2013-06-21 10:09:00,
2013-06-21 05:24:00,61.6,59.0,29.95,WNW,287,0.0,2.0,90,0.00,,,0.13,weatherlink.com 1.10,2013-06-21 10:24:00,
2013-06-21 05:39:00,61.2,58.0,29.95,WNW,290,0.0,0.0,90,0.00,,,0.13,weatherlink.com 1.10,2013-06-21 10:39:00,
2013-06-21 05:54:00,60.9,58.0,29.95,WNW,290,0.0,0.0,91,0.00,,,0.13,weatherlink.com 1.10,2013-06-21 10:54:00,
2013-06-21 06:09:00,60.7,58.0,29.94,WNW,290,0.0,0.0,91,0.00,,,0.13,weatherlink.com 1.10,2013-06-21 11:09:00,
2013-06-21 06:24:00,60.7,58.0,29.94,WNW,289,0.0,0.0,92,0.00,,,0.13,weatherlink.com 1.10,2013-06-21 11:24:00,
2013-06-21 06:39:00,61.0,59.0,29.94,WNW,290,0.0,0.0,92,0.00,,,0.13,weatherlink.com 1.10,2013-06-21 11:39:00,
2013-06-21 06:54:00,61.8,60.0,29.94,WNW,290,0.0,0.0,92,0.00,,,0.13,weatherlink.com 1.10,2013-06-21 11:54:00,
2013-06-21 07:09:00,62.9,60.0,29.94,WNW,290,0.0,0.0,90,0.00,,,0.13,weatherlink.com 1.10,2013-06-21 12:09:00,
2013-06-21 07:24:00,64.2,61.0,29.94,West,266,0.0,1.0,88,0.00,,,0.13,weatherlink.com 1.10,2013-06-21 12:24:00,
2013-06-21 07:39:00,65.4,61.0,29.93,WSW,250,0.0,0.0,86,0.00,,,0.13,weatherlink.com 1.10,2013-06-21 12:39:00,
2013-06-21 07:54:00,67.0,61.0,29.93,West,266,0.0,1.0,82,0.00,,,0.13,weatherlink.com 1.10,2013-06-21 12:54:00,
2013-06-21 08:10:00,68.3,62.0,29.93,WNW,286,0.0,1.0,80,0.00,,,0.13,weatherlink.com 1.10,2013-06-21 13:10:00,
2013-06-21 08:25:00,69.0,62.0,29.94,West,264,0.0,1.0,79,0.00,,,0.13,weatherlink.com 1.10,2013-06-21 13:25:00,
2013-06-21 08:40:00,69.4,62.0,29.94,West,265,0.0,3.0,76,0.00,,,0.13,weatherlink.com 1.10,2013-06-21 13:40:00,
2013-06-21 08:55:00,70.1,62.0,29.94,NNW,345,0.0,1.0,76,0.00,,,0.13,weatherlink.com 1.10,2013-06-21 13:55:00,
2013-06-21 09:10:00,71.0,62.0,29.95,NNE,26,2.0,3.0,74,0.00,,,0.13,weatherlink.com 1.10,2013-06-21 14:10:00,
2013-06-21 09:25:00,71.4,62.0,29.95,North,1,0.0,5.0,72,0.00,,,0.13,weatherlink.com 1.10,2013-06-21 14:25:00,
2013-06-21 09:40:00,71.9,62.0,29.96,NE,49,0.0,3.0,70,0.00,,,0.13,weatherlink.com 1.10,2013-06-21 14:40:00,
2013-06-21 09:55:00,72.9,62.0,29.95,NE,49,0.0,3.0,68,0.00,,,0.13,weatherlink.com 1.10,2013-06-21 14:55:00,
2013-06-21 10:25:00,73.8,63.0,29.96,NNE,32,0.0,3.0,68,0.00,,,0.13,weatherlink.com 1.10,2013-06-21 15:25:00,
2013-06-21 10:40:00,74.8,63.0,29.96,NNE,22,0.0,2.0,66,0.00,,,0.13,weatherlink.com 1.10,2013-06-21 15:40:00,
2013-06-21 10:55:00,76.2,64.0,29.97,ESE,106,0.0,1.0,65,0.00,,,0.13,weatherlink.com 1.10,2013-06-21 15:55:00,
2013-06-21 11:10:00,77.5,62.0,29.98,South,174,0.0,1.0,60,0.00,,,0.13,weatherlink.com 1.10,2013-06-21 16:10:00,
2013-06-21 11:25:00,77.3,62.0,29.97,ENE,72,0.0,3.0,59,0.00,,,0.13,weatherlink.com 1.10,2013-06-21 16:25:00,
2013-06-21 11:40:00,77.6,64.0,29.97,East,98,0.0,4.0,64,0.00,,,0.13,weatherlink.com 1.10,2013-06-21 16:40:00,
2013-06-21 11:55:00,77.9,64.0,29.97,East,92,0.0,3.0,62,0.00,,,0.13,weatherlink.com 1.10,2013-06-21 16:55:00,
2013-06-21 12:10:00,77.6,63.0,29.97,ENE,76,0.0,2.0,62,0.00,,,0.13,weatherlink.com 1.10,2013-06-21 17:10:00,
2013-06-21 12:25:00,78.2,65.0,29.97,East,87,2.0,2.0,65,0.00,,,0.13,weatherlink.com 1.10,2013-06-21 17:25:00,
2013-06-21 12:55:00,79.8,65.0,29.98,ESE,120,0.0,2.0,60,0.00,,,0.13,weatherlink.com 1.10,2013-06-21 17:55:00,
2013-06-21 13:10:00,80.3,65.0,29.97,East,87,0.0,2.0,59,0.00,,,0.13,weatherlink.com 1.10,2013-06-21 18:10:00,
2013-06-21 13:25:00,80.0,65.0,29.98,East,84,0.0,4.0,60,0.00,,,0.13,weatherlink.com 1.10,2013-06-21 18:25:00,
2013-06-21 13:40:00,79.9,64.0,29.99,North,4,0.0,3.0,58,0.00,,,0.13,weatherlink.com 1.10,2013-06-21 18:40:00,
2013-06-21 13:55:00,79.8,64.0,30.01,NNW,339,0.0,4.0,58,0.00,,,0.13,weatherlink.com 1.10,2013-06-21 18:55:00,
2013-06-21 14:10:00,78.6,64.0,30.00,NE,39,0.0,2.0,61,0.00,,,0.13,weatherlink.com 1.10,2013-06-21 19:10:00,
2013-06-21 14:25:00,78.7,64.0,29.98,ENE,63,1.0,3.0,60,0.00,,,0.13,weatherlink.com 1.10,2013-06-21 19:25:00,
2013-06-21 14:40:00,79.4,64.0,29.98,NNW,328,0.0,2.0,59,0.00,,,0.13,weatherlink.com 1.10,2013-06-21 19:40:00,
2013-06-21 14:55:00,79.5,64.0,29.97,East,79,0.0,3.0,60,0.00,,,0.13,weatherlink.com 1.10,2013-06-21 19:55:00,
2013-06-21 15:10:00,78.9,65.0,29.96,East,83,1.0,2.0,63,0.00,,,0.13,weatherlink.com 1.10,2013-06-21 20:10:00,
2013-06-21 15:25:00,78.2,65.0,29.96,East,79,0.0,1.0,63,0.00,,,0.13,weatherlink.com 1.10,2013-06-21 20:25:00,
2013-06-21 15:40:00,77.5,64.0,29.99,East,79,0.0,1.0,63,0.00,,,0.13,weatherlink.com 1.10,2013-06-21 20:40:00,
2013-06-21 15:55:00,77.3,64.0,30.00,East,79,0.0,0.0,64,0.00,,,0.13,weatherlink.com 1.10,2013-06-21 20:55:00,
2013-06-21 16:10:00,76.5,64.0,30.02,East,79,0.0,1.0,65,0.00,,,0.13,weatherlink.com 1.10,2013-06-21 21:10:00,
2013-06-21 16:25:00,75.8,65.0,30.02,East,79,0.0,0.0,70,0.00,,,0.13,weatherlink.com 1.10,2013-06-21 21:25:00,
2013-06-21 16:40:00,75.2,64.0,30.02,NNE,29,0.0,0.0,69,0.00,,,0.13,weatherlink.com 1.10,2013-06-21 21:40:00,
2013-06-21 16:55:00,75.1,66.0,30.01,WNW,293,0.0,0.0,72,0.00,,,0.13,weatherlink.com 1.10,2013-06-21 21:55:00,
2013-06-21 17:10:00,74.6,65.0,30.02,WSW,255,0.0,0.0,73,0.00,,,0.13,weatherlink.com 1.10,2013-06-21 22:10:00,
2013-06-21 17:25:00,74.5,65.0,30.03,WSW,256,0.0,1.0,73,0.00,,,0.13,weatherlink.com 1.10,2013-06-21 22:25:00,
2013-06-21 17:40:00,74.1,67.0,30.03,WSW,249,0.0,1.0,78,0.00,,,0.13,weatherlink.com 1.10,2013-06-21 22:40:00,
2013-06-21 17:55:00,73.8,68.0,30.03,WSW,240,0.0,1.0,81,0.00,,,0.13,weatherlink.com 1.10,2013-06-21 22:55:00,
2013-06-21 18:10:00,73.3,67.0,30.02,WSW,243,0.0,1.0,81,0.00,,,0.13,weatherlink.com 1.10,2013-06-21 23:10:00,
2013-06-21 18:25:00,72.8,67.0,30.01,WSW,242,0.0,1.0,83,0.00,,,0.13,weatherlink.com 1.10,2013-06-21 23:25:00,
2013-06-21 18:40:00,72.1,66.0,30.01,SW,222,2.0,3.0,82,0.01,,,0.14,weatherlink.com 1.10,2013-06-21 23:40:00,
2013-06-21 18:55:00,70.6,65.0,29.99,SSW,195,0.0,3.0,81,0.02,,,0.15,weatherlink.com 1.10,2013-06-21 23:55:00,
2013-06-21 19:10:00,69.3,64.0,29.98,South,191,1.0,4.0,84,0.04,,,0.17,weatherlink.com 1.10,2013-06-22 00:10:00,
2013-06-21 19:25:00,68.6,65.0,29.95,ESE,123,1.0,2.0,87,0.04,,,0.17,weatherlink.com 1.10,2013-06-22 00:25:00,
2013-06-21 19:40:00,68.3,65.0,29.93,East,101,2.0,3.0,88,0.04,,,0.18,weatherlink.com 1.10,2013-06-22 00:40:00,
2013-06-21 19:55:00,68.0,64.0,29.86,East,85,5.0,7.0,87,0.02,,,0.18,weatherlink.com 1.10,2013-06-22 00:55:00,
2013-06-21 20:10:00,68.2,64.0,29.88,East,91,2.0,6.0,86,0.01,,,0.18,weatherlink.com 1.10,2013-06-22 01:10:00,
2013-06-21 20:25:00,68.6,64.0,29.95,NNE,26,1.0,6.0,86,0.01,,,0.18,weatherlink.com 1.10,2013-06-22 01:25:00,
2013-06-21 20:40:00,69.6,64.0,29.94,ESE,102,0.0,4.0,83,0.00,,,0.18,weatherlink.com 1.10,2013-06-22 01:40:00,
2013-06-21 20:55:00,69.7,64.0,29.94,NNW,337,0.0,1.0,83,0.00,,,0.18,weatherlink.com 1.10,2013-06-22 01:55:00,
2013-06-21 21:10:00,69.6,64.0,29.92,ESE,108,0.0,4.0,83,0.00,,,0.18,weatherlink.com 1.10,2013-06-22 02:10:00,
2013-06-21 21:25:00,69.5,64.0,29.90,East,81,2.0,4.0,83,0.00,,,0.18,weatherlink.com 1.10,2013-06-22 02:25:00,
2013-06-21 21:40:00,69.4,64.0,29.91,NNE,25,0.0,6.0,83,0.00,,,0.18,weatherlink.com 1.10,2013-06-22 02:40:00,
2013-06-21 21:55:00,68.9,64.0,29.94,WNW,301,0.0,3.0,85,0.00,,,0.18,weatherlink.com 1.10,2013-06-22 02:55:00,
2013-06-21 22:11:00,69.0,65.0,29.95,NNE,17,0.0,3.0,86,0.00,,,0.18,weatherlink.com 1.10,2013-06-22 03:11:00,
2013-06-21 22:26:00,68.5,65.0,29.95,WNW,302,0.0,2.0,87,0.00,,,0.18,weatherlink.com 1.10,2013-06-22 03:26:00,
2013-06-21 22:41:00,68.0,65.0,29.95,NE,34,0.0,2.0,89,0.00,,,0.18,weatherlink.com 1.10,2013-06-22 03:41:00,
2013-06-21 22:56:00,67.6,64.0,29.96,NW,311,0.0,1.0,89,0.00,,,0.18,weatherlink.com 1.10,2013-06-22 03:56:00,
2013-06-21 23:11:00,67.5,65.0,29.97,ENE,72,1.0,1.0,90,0.00,,,0.18,weatherlink.com 1.10,2013-06-22 04:11:00,
2013-06-21 23:26:00,68.1,65.0,29.96,NE,56,1.0,2.0,89,0.00,,,0.18,weatherlink.com 1.10,2013-06-22 04:26:00,
2013-06-21 23:41:00,67.5,64.0,29.96,NE,56,0.0,1.0,89,0.00,,,0.18,weatherlink.com 1.10,2013-06-22 04:41:00,
2013-06-21 23:56:00,67.0,64.0,29.96,ENE,57,0.0,1.0,89,0.00,,,0.18,weatherlink.com 1.10,2013-06-22 04:56:00,